Time;durP1;ratioP1;P1;durP2;ratioP2;P2;SDS_P1;SDS_P2;PMS_P1;PMS_P2;Temp;Humidity;BMP_temperature;BMP_pressure;BME280_temperature;BME280_humidity;BME280_pressure;Samples;Min_cycle;Max_cycle;Signal;HPM_P1;HPM_P2
2020/12/28 00:01:55;;;;;;;23.83;9.85;;;;;;;;;;5035702;28;20025;-61
2020/12/28 00:04:21;;;;;;;15.13;8.27;;;;;;;;;;5017742;28;20033;-62
2020/12/28 00:06:47;;;;;;;14.10;8.20;;;;;;;;;;5035320;28;20027;-62
2020/12/28 00:09:13;;;;;;;17.95;8.77;;;;;;;;;;5035263;28;20030;-62
2020/12/28 00:11:40;;;;;;;14.27;7.68;;;;;;;;;;5035533;28;20017;-61
2020/12/28 00:14:06;;;;;;;15.90;8.48;;;;;;;;;;5035376;28;20378;-61
2020/12/28 00:16:33;;;;;;;14.52;8.23;;;;;;;;;;5017586;28;20022;-62
2020/12/28 00:18:59;;;;;;;13.23;7.88;;;;;;;;;;5035151;28;20052;-62
2020/12/28 00:21:26;;;;;;;15.15;8.10;;;;;;;;;;5034956;28;20083;-61
2020/12/28 00:23:52;;;;;;;13.77;7.00;;;;;;;;;;5035107;28;20465;-62
2020/12/28 00:26:18;;;;;;;13.70;7.80;;;;;;;;;;5017304;28;20475;-61
2020/12/28 00:28:45;;;;;;;13.05;7.18;;;;;;;;;;5034964;28;20094;-61
2020/12/28 00:31:11;;;;;;;12.80;7.05;;;;;;;;;;5034934;28;20022;-60
2020/12/28 00:33:38;;;;;;;13.05;6.60;;;;;;;;;;5035135;28;20390;-62
2020/12/28 00:36:04;;;;;;;12.85;6.40;;;;;;;;;;5034929;28;20021;-61
2020/12/28 00:38:30;;;;;;;12.10;6.88;;;;;;;;;;5034782;28;20100;-62
2020/12/28 00:40:56;;;;;;;12.05;6.82;;;;;;;;;;5034730;28;20470;-60
2020/12/28 00:43:22;;;;;;;13.13;7.07;;;;;;;;;;5034643;28;20512;-61
2020/12/28 00:45:48;;;;;;;10.82;6.53;;;;;;;;;;5034560;28;20470;-62
2020/12/28 00:48:15;;;;;;;12.02;7.10;;;;;;;;;;5034572;28;20386;-62
2020/12/28 00:50:41;;;;;;;13.15;6.65;;;;;;;;;;5034370;28;20493;-62
2020/12/28 00:53:07;;;;;;;11.90;6.45;;;;;;;;;;5034710;28;20029;-61
2020/12/28 00:55:33;;;;;;;12.50;5.95;;;;;;;;;;5034416;28;20528;-61
2020/12/28 00:57:59;;;;;;;10.48;6.07;;;;;;;;;;5034233;28;20045;-62
2020/12/28 01:00:25;;;;;;;10.80;6.50;;;;;;;;;;5034292;28;20032;-61
2020/12/28 01:02:51;;;;;;;9.98;5.97;;;;;;;;;;5034320;28;20071;-61
2020/12/28 01:05:18;;;;;;;12.07;6.72;;;;;;;;;;5034212;28;20074;-61
2020/12/28 01:07:44;;;;;;;12.32;6.13;;;;;;;;;;5034422;28;20033;-62
2020/12/28 01:10:10;;;;;;;10.30;6.07;;;;;;;;;;5034360;28;20068;-61
2020/12/28 01:12:36;;;;;;;12.95;6.68;;;;;;;;;;5034040;28;20571;-59
2020/12/28 01:15:02;;;;;;;13.75;8.10;;;;;;;;;;5034123;28;20494;-61
2020/12/28 01:17:28;;;;;;;15.15;8.18;;;;;;;;;;5034063;28;20033;-61
2020/12/28 01:19:54;;;;;;;16.88;8.60;;;;;;;;;;5034043;28;20025;-60
2020/12/28 01:22:20;;;;;;;17.13;8.95;;;;;;;;;;5016257;28;20033;-59
2020/12/28 01:24:47;;;;;;;17.10;9.18;;;;;;;;;;5033909;28;20462;-60
2020/12/28 01:27:13;;;;;;;16.55;9.57;;;;;;;;;;5033815;28;20029;-60
2020/12/28 01:29:39;;;;;;;17.38;9.27;;;;;;;;;;5033846;28;20036;-60
2020/12/28 01:32:05;;;;;;;15.32;8.95;;;;;;;;;;5033920;28;20105;-60
2020/12/28 01:34:31;;;;;;;16.13;9.05;;;;;;;;;;5033105;28;20056;-60
2020/12/28 01:36:57;;;;;;;16.17;8.50;;;;;;;;;;5033665;28;20017;-60
2020/12/28 01:39:23;;;;;;;16.10;8.48;;;;;;;;;;5033635;28;20032;-61
2020/12/28 01:41:49;;;;;;;12.93;7.78;;;;;;;;;;5033819;28;20018;-61
2020/12/28 01:44:16;;;;;;;14.00;7.65;;;;;;;;;;5033537;28;20034;-61
2020/12/28 01:46:42;;;;;;;14.75;8.55;;;;;;;;;;5033830;28;20017;-61
2020/12/28 01:49:08;;;;;;;12.00;7.65;;;;;;;;;;5033683;28;20138;-61
2020/12/28 01:51:34;;;;;;;14.80;8.35;;;;;;;;;;5033508;28;20116;-60
2020/12/28 01:54:01;;;;;;;12.75;7.45;;;;;;;;;;5033543;28;20033;-60
2020/12/28 01:56:28;;;;;;;14.68;7.93;;;;;;;;;;5033261;28;20045;-60
2020/12/28 01:58:55;;;;;;;12.88;7.53;;;;;;;;;;5033904;28;20021;-60
2020/12/28 02:01:23;;;;;;;12.88;7.60;;;;;;;;;;5033272;28;20116;-60
2020/12/28 02:03:49;;;;;;;14.65;8.40;;;;;;;;;;5033497;28;20040;-60
2020/12/28 02:06:15;;;;;;;13.98;7.05;;;;;;;;;;5033554;28;20179;-60
2020/12/28 02:08:42;;;;;;;14.98;8.15;;;;;;;;;;5033225;28;20061;-60
2020/12/28 02:11:08;;;;;;;14.57;8.63;;;;;;;;;;5033244;28;20049;-60
2020/12/28 02:13:34;;;;;;;15.00;8.32;;;;;;;;;;5033347;28;20029;-60
2020/12/28 02:16:00;;;;;;;14.55;7.85;;;;;;;;;;5033365;28;20026;-59
2020/12/28 02:18:26;;;;;;;14.38;8.10;;;;;;;;;;5033176;28;20025;-60
2020/12/28 02:20:53;;;;;;;14.63;8.38;;;;;;;;;;5033331;28;20026;-60
2020/12/28 02:23:19;;;;;;;15.10;9.10;;;;;;;;;;5033042;28;20033;-61
2020/12/28 02:25:45;;;;;;;16.20;8.82;;;;;;;;;;5033118;28;20445;-60
2020/12/28 02:28:11;;;;;;;20.30;9.70;;;;;;;;;;5033094;28;20064;-60
2020/12/28 02:30:39;;;;;;;18.55;10.30;;;;;;;;;;5033361;28;20374;-61
2020/12/28 02:33:05;;;;;;;19.25;9.98;;;;;;;;;;5032936;28;20079;-61
2020/12/28 02:35:31;;;;;;;19.10;9.40;;;;;;;;;;5033306;28;20030;-60
2020/12/28 02:37:57;;;;;;;16.42;10.10;;;;;;;;;;5015268;28;20034;-61
2020/12/28 02:40:23;;;;;;;17.98;10.18;;;;;;;;;;5033212;28;20096;-60
2020/12/28 02:42:50;;;;;;;18.27;10.43;;;;;;;;;;5032986;28;20037;-61
2020/12/28 02:45:16;;;;;;;16.95;9.73;;;;;;;;;;5034925;28;20032;-61
2020/12/28 02:47:43;;;;;;;20.77;11.68;;;;;;;;;;5036879;28;20022;-61
2020/12/28 02:50:09;;;;;;;16.85;9.60;;;;;;;;;;5036963;28;20044;-60
2020/12/28 02:52:35;;;;;;;16.83;8.95;;;;;;;;;;5036690;28;20026;-61
2020/12/28 02:55:01;;;;;;;18.90;10.25;;;;;;;;;;5036920;28;20025;-60
2020/12/28 02:57:28;;;;;;;15.93;9.85;;;;;;;;;;5036809;28;20057;-61
2020/12/28 02:59:54;;;;;;;15.20;9.00;;;;;;;;;;5037130;28;20025;-61
2020/12/28 03:02:20;;;;;;;17.42;9.30;;;;;;;;;;5036788;28;20120;-61
2020/12/28 03:04:46;;;;;;;17.20;9.68;;;;;;;;;;5036692;28;20037;-61
2020/12/28 03:07:12;;;;;;;14.95;8.80;;;;;;;;;;5036919;28;20035;-61
2020/12/28 03:09:38;;;;;;;14.55;8.52;;;;;;;;;;5036465;28;20107;-61
2020/12/28 03:12:05;;;;;;;15.80;9.07;;;;;;;;;;5036904;28;20033;-61
2020/12/28 03:14:31;;;;;;;15.52;8.55;;;;;;;;;;5036295;28;20026;-61
2020/12/28 03:16:57;;;;;;;15.23;9.07;;;;;;;;;;5036555;28;20026;-61
2020/12/28 03:19:23;;;;;;;13.85;8.82;;;;;;;;;;5036278;28;20021;-61
2020/12/28 03:21:50;;;;;;;17.48;8.80;;;;;;;;;;5036223;28;20049;-60
2020/12/28 03:24:16;;;;;;;16.10;9.27;;;;;;;;;;5036462;28;20125;-61
2020/12/28 03:26:42;;;;;;;16.65;9.75;;;;;;;;;;5018535;28;20083;-60
2020/12/28 03:29:08;;;;;;;16.85;9.95;;;;;;;;;;5036087;28;20029;-60
2020/12/28 03:31:34;;;;;;;18.25;8.95;;;;;;;;;;5036433;28;20036;-60
2020/12/28 03:34:00;;;;;;;13.90;8.50;;;;;;;;;;5036077;28;20076;-61
2020/12/28 03:36:26;;;;;;;16.48;9.02;;;;;;;;;;5036325;28;20399;-61
2020/12/28 03:38:53;;;;;;;18.63;10.70;;;;;;;;;;5018253;28;20026;-61
2020/12/28 03:41:19;;;;;;;17.00;9.32;;;;;;;;;;5035959;28;20030;-61
2020/12/28 03:43:45;;;;;;;17.50;9.35;;;;;;;;;;5036154;28;20037;-61
2020/12/28 03:46:11;;;;;;;17.73;10.05;;;;;;;;;;5036071;28;20386;-60
2020/12/28 03:48:37;;;;;;;14.82;9.02;;;;;;;;;;5036046;28;20390;-61
2020/12/28 03:51:03;;;;;;;15.77;8.98;;;;;;;;;;5036055;28;20032;-61
2020/12/28 03:53:29;;;;;;;13.23;7.63;;;;;;;;;;5035653;28;20076;-61
2020/12/28 03:55:56;;;;;;;14.48;8.52;;;;;;;;;;5035140;28;20037;-60
2020/12/28 03:58:22;;;;;;;13.60;8.02;;;;;;;;;;5035408;28;20383;-61
2020/12/28 04:00:48;;;;;;;12.45;7.65;;;;;;;;;;5035931;28;20056;-60
2020/12/28 04:03:15;;;;;;;10.23;6.95;;;;;;;;;;5035403;28;20037;-60
2020/12/28 04:05:41;;;;;;;14.18;7.70;;;;;;;;;;5035801;28;20109;-61
2020/12/28 04:08:07;;;;;;;12.27;7.07;;;;;;;;;;5034950;28;20561;-61
2020/12/28 04:10:34;;;;;;;13.10;7.45;;;;;;;;;;5035480;28;20033;-61
2020/12/28 04:13:00;;;;;;;12.27;7.55;;;;;;;;;;5035415;28;20383;-61
2020/12/28 04:15:27;;;;;;;10.32;6.85;;;;;;;;;;5035480;28;20367;-61
2020/12/28 04:17:53;;;;;;;11.13;7.07;;;;;;;;;;5035632;28;20025;-61
2020/12/28 04:20:19;;;;;;;16.05;7.88;;;;;;;;;;5035172;28;20028;-61
2020/12/28 04:22:45;;;;;;;14.05;7.68;;;;;;;;;;5035254;28;20033;-60
2020/12/28 04:25:15;;;;;;;16.33;8.48;;;;;;;;;;5035368;28;20052;-61
2020/12/28 04:27:41;;;;;;;15.75;8.15;;;;;;;;;;5017422;28;20025;-61
2020/12/28 04:30:08;;;;;;;13.15;8.40;;;;;;;;;;5035273;28;20428;-61
2020/12/28 04:32:34;;;;;;;14.13;8.48;;;;;;;;;;5035006;28;20026;-61
2020/12/28 04:35:00;;;;;;;19.27;10.05;;;;;;;;;;5035123;28;20455;-60
2020/12/28 04:37:26;;;;;;;16.65;9.43;;;;;;;;;;5035237;28;20109;-61
2020/12/28 04:39:52;;;;;;;15.00;9.43;;;;;;;;;;5035075;28;20382;-61
2020/12/28 04:42:28;;;;;;;18.42;9.98;;;;;;;;;;5035028;28;20038;-61
2020/12/28 04:44:55;;;;;;;14.75;9.35;;;;;;;;;;5035001;28;20046;-61
2020/12/28 04:47:21;;;;;;;17.88;9.93;;;;;;;;;;5035062;28;20032;-61
2020/12/28 04:49:48;;;;;;;17.65;10.82;;;;;;;;;;5034946;28;20083;-61
2020/12/28 04:52:14;;;;;;;18.05;11.43;;;;;;;;;;5034638;28;20022;-61
2020/12/28 04:54:41;;;;;;;17.00;10.07;;;;;;;;;;5034877;28;20025;-61
2020/12/28 04:57:10;;;;;;;19.77;10.70;;;;;;;;;;5034645;28;20098;-61
2020/12/28 04:59:36;;;;;;;16.63;10.52;;;;;;;;;;5034708;28;20025;-61
2020/12/28 05:02:03;;;;;;;16.52;10.88;;;;;;;;;;5034474;28;20031;-62
2020/12/28 05:04:29;;;;;;;17.20;10.77;;;;;;;;;;5034369;28;20505;-62
2020/12/28 05:06:56;;;;;;;18.23;10.02;;;;;;;;;;5016733;28;20044;-61
2020/12/28 05:09:23;;;;;;;21.40;11.07;;;;;;;;;;5034338;28;20096;-62
2020/12/28 05:11:54;;;;;;;20.75;11.88;;;;;;;;;;5034585;28;20379;-61
2020/12/28 05:14:21;;;;;;;19.02;11.38;;;;;;;;;;5034361;28;20026;-62
2020/12/28 05:16:47;;;;;;;20.67;11.65;;;;;;;;;;5034535;28;20025;-62
2020/12/28 05:19:14;;;;;;;18.25;11.30;;;;;;;;;;5034271;28;20431;-62
2020/12/28 05:21:42;;;;;;;19.08;11.00;;;;;;;;;;5034372;28;20520;-62
2020/12/28 05:24:12;;;;;;;20.25;11.45;;;;;;;;;;5034297;28;20038;-62
2020/12/28 05:26:41;;;;;;;18.38;11.38;;;;;;;;;;5033942;28;20051;-62
2020/12/28 05:29:09;;;;;;;19.02;10.35;;;;;;;;;;5033965;28;20035;-62
2020/12/28 05:31:36;;;;;;;20.20;12.23;;;;;;;;;;5034108;28;20482;-61
2020/12/28 05:34:02;;;;;;;18.30;11.02;;;;;;;;;;5033886;28;20083;-62
2020/12/28 05:36:28;;;;;;;16.63;10.48;;;;;;;;;;5033881;28;20104;-62
2020/12/28 05:38:54;;;;;;;19.75;10.70;;;;;;;;;;5034010;28;20435;-62
2020/12/28 05:41:27;;;;;;;16.02;10.80;;;;;;;;;;5033721;28;20030;-61
2020/12/28 05:43:54;;;;;;;25.83;11.20;;;;;;;;;;5034041;28;20037;-62
2020/12/28 05:46:23;;;;;;;17.73;10.43;;;;;;;;;;5033669;28;20197;-62
2020/12/28 05:48:54;;;;;;;22.55;10.77;;;;;;;;;;5034026;28;20029;-61
2020/12/28 05:51:20;;;;;;;16.00;10.10;;;;;;;;;;5033926;28;20053;-62
2020/12/28 05:53:48;;;;;;;19.83;10.40;;;;;;;;;;5033650;28;20026;-62
2020/12/28 05:56:15;;;;;;;17.30;10.82;;;;;;;;;;5033583;28;20899;-62
2020/12/28 05:58:44;;;;;;;16.48;10.20;;;;;;;;;;5033590;28;20025;-62
2020/12/28 06:01:11;;;;;;;16.70;10.32;;;;;;;;;;5033429;28;20044;-62
2020/12/28 06:03:41;;;;;;;20.40;10.43;;;;;;;;;;5033418;28;20030;-62
2020/12/28 06:06:10;;;;;;;18.55;9.40;;;;;;;;;;5033457;28;20029;-62
2020/12/28 06:08:36;;;;;;;25.15;13.23;;;;;;;;;;5033300;28;20079;-62
2020/12/28 06:11:06;;;;;;;28.67;10.35;;;;;;;;;;5033281;28;20029;-62
2020/12/28 06:13:32;;;;;;;26.38;10.07;;;;;;;;;;5033529;28;20036;-62
2020/12/28 06:16:05;;;;;;;33.85;16.10;;;;;;;;;;5015608;28;20026;-60
2020/12/28 06:18:31;;;;;;;13.18;7.68;;;;;;;;;;5033224;28;20052;-62
2020/12/28 06:20:57;;;;;;;20.08;8.90;;;;;;;;;;5032711;28;20076;-62
2020/12/28 06:23:27;;;;;;;16.83;7.93;;;;;;;;;;5033419;28;20033;-62
2020/12/28 06:25:54;;;;;;;17.88;8.18;;;;;;;;;;5033096;28;20079;-61
2020/12/28 06:28:24;;;;;;;27.25;11.10;;;;;;;;;;5033205;28;20034;-61
2020/12/28 06:30:50;;;;;;;20.38;8.32;;;;;;;;;;5033072;28;20466;-61
2020/12/28 06:33:17;;;;;;;16.25;7.97;;;;;;;;;;5033466;28;20053;-61
2020/12/28 06:35:43;;;;;;;27.05;9.75;;;;;;;;;;5032908;28;20021;-61
2020/12/28 06:38:09;;;;;;;19.75;9.90;;;;;;;;;;5033109;28;20090;-61
2020/12/28 06:40:37;;;;;;;17.10;9.40;;;;;;;;;;5032968;28;20120;-61
2020/12/28 06:43:14;;;;;;;19.27;10.25;;;;;;;;;;5032948;28;20030;-62
2020/12/28 06:45:41;;;;;;;13.68;8.45;;;;;;;;;;5032994;28;20056;-62
2020/12/28 06:48:20;;;;;;;16.23;8.68;;;;;;;;;;5033111;28;20046;-62
2020/12/28 06:50:47;;;;;;;12.80;7.68;;;;;;;;;;5033140;28;20429;-62
2020/12/28 06:53:13;;;;;;;12.80;6.45;;;;;;;;;;5033127;28;20029;-62
2020/12/28 06:55:39;;;;;;;11.82;7.22;;;;;;;;;;5032914;28;20029;-61
2020/12/28 06:58:05;;;;;;;20.83;8.43;;;;;;;;;;5032677;28;20051;-62
2020/12/28 07:00:31;;;;;;;20.33;8.85;;;;;;;;;;5032821;28;20040;-62
2020/12/28 07:02:58;;;;;;;15.40;8.18;;;;;;;;;;5033045;28;20124;-62
2020/12/28 07:05:25;;;;;;;18.02;8.20;;;;;;;;;;5032067;28;20080;-61
2020/12/28 07:07:52;;;;;;;20.70;8.77;;;;;;;;;;5032805;28;20017;-60
2020/12/28 07:10:19;;;;;;;18.27;11.45;;;;;;;;;;5032767;28;20030;-62
2020/12/28 07:12:45;;;;;;;18.10;10.35;;;;;;;;;;5033021;28;20029;-62
2020/12/28 07:15:11;;;;;;;17.67;8.85;;;;;;;;;;5033044;28;20054;-62
2020/12/28 07:17:37;;;;;;;15.40;9.05;;;;;;;;;;5032657;28;20072;-62
2020/12/28 07:20:04;;;;;;;21.95;11.30;;;;;;;;;;5032754;28;20026;-60
2020/12/28 07:22:37;;;;;;;20.55;12.02;;;;;;;;;;5032416;28;20075;-61
2020/12/28 07:25:04;;;;;;;23.92;14.63;;;;;;;;;;5033065;28;20113;-61
2020/12/28 07:27:30;;;;;;;17.08;9.93;;;;;;;;;;5032401;28;20025;-62
2020/12/28 07:29:57;;;;;;;18.02;9.93;;;;;;;;;;5032558;28;20112;-59
2020/12/28 07:32:23;;;;;;;18.88;8.95;;;;;;;;;;5034232;28;20030;-61
2020/12/28 07:34:53;;;;;;;14.07;9.27;;;;;;;;;;5036077;28;20471;-61
2020/12/28 07:37:20;;;;;;;15.02;8.27;;;;;;;;;;5036325;28;20107;-61
2020/12/28 07:39:50;;;;;;;12.80;7.50;;;;;;;;;;5035581;28;20029;-60
2020/12/28 07:42:20;;;;;;;8.65;5.95;;;;;;;;;;5035356;28;20034;-61
2020/12/28 07:44:59;;;;;;;7.22;5.13;;;;;;;;;;5036026;28;20041;-61
2020/12/28 07:47:37;;;;;;;7.47;4.53;;;;;;;;;;5036117;28;20344;-62
2020/12/28 07:50:04;;;;;;;10.05;5.90;;;;;;;;;;5036066;28;20025;-61
2020/12/28 07:52:31;;;;;;;7.75;4.93;;;;;;;;;;5035325;28;20474;-61
2020/12/28 07:55:03;;;;;;;19.88;6.57;;;;;;;;;;5034182;28;20478;-61
2020/12/28 07:57:47;;;;;;;6.38;3.58;;;;;;;;;;5034400;28;20407;-60
2020/12/28 08:00:17;;;;;;;11.80;6.43;;;;;;;;;;5035778;28;20021;-60
2020/12/28 08:02:49;;;;;;;15.82;8.90;;;;;;;;;;5035628;28;20037;-61
2020/12/28 08:05:18;;;;;;;15.55;8.20;;;;;;;;;;5035418;28;20029;-61
2020/12/28 08:07:44;;;;;;;7.38;4.95;;;;;;;;;;5035450;28;20029;-61
2020/12/28 08:10:11;;;;;;;6.65;3.75;;;;;;;;;;5035224;28;20037;-60
2020/12/28 08:12:50;;;;;;;6.40;3.70;;;;;;;;;;5035350;28;20026;-61
2020/12/28 08:15:25;;;;;;;11.13;4.43;;;;;;;;;;5035922;28;20032;-61
2020/12/28 08:17:51;;;;;;;6.32;3.75;;;;;;;;;;5035646;28;20029;-61
2020/12/28 08:20:17;;;;;;;6.63;3.50;;;;;;;;;;5035416;28;20037;-60
2020/12/28 08:22:52;;;;;;;8.45;3.70;;;;;;;;;;5035407;28;20116;-62
2020/12/28 08:25:18;;;;;;;4.65;2.38;;;;;;;;;;5035122;28;20025;-61
2020/12/28 08:27:44;;;;;;;14.75;7.30;;;;;;;;;;5035199;28;20018;-61
2020/12/28 08:30:10;;;;;;;3.50;2.13;;;;;;;;;;5035383;28;20104;-61
2020/12/28 08:32:40;;;;;;;3.35;2.17;;;;;;;;;;5034968;28;20068;-62
2020/12/28 08:35:06;;;;;;;3.13;2.25;;;;;;;;;;5035025;28;20065;-61
2020/12/28 08:37:32;;;;;;;9.63;3.15;;;;;;;;;;5034939;28;20028;-61
2020/12/28 08:39:59;;;;;;;5.10;3.60;;;;;;;;;;5035128;28;20030;-61
2020/12/28 08:42:26;;;;;;;8.35;4.90;;;;;;;;;;5034459;28;20109;-61
2020/12/28 08:44:53;;;;;;;18.55;10.40;;;;;;;;;;5017081;28;20438;-61
2020/12/28 08:47:19;;;;;;;8.25;4.13;;;;;;;;;;5034695;28;20017;-62
2020/12/28 08:49:48;;;;;;;8.65;4.80;;;;;;;;;;5035118;28;20429;-62
2020/12/28 08:52:18;;;;;;;11.65;6.47;;;;;;;;;;5034672;28;20470;-62
2020/12/28 08:54:58;;;;;;;12.65;5.25;;;;;;;;;;5034787;28;20543;-62
2020/12/28 08:57:25;;;;;;;9.25;6.28;;;;;;;;;;5034364;28;20408;-61
2020/12/28 08:59:51;;;;;;;13.02;8.63;;;;;;;;;;5034874;28;20029;-61
2020/12/28 09:02:18;;;;;;;17.40;9.38;;;;;;;;;;5034701;28;20045;-62
2020/12/28 09:04:45;;;;;;;15.90;8.07;;;;;;;;;;5034507;28;20095;-62
2020/12/28 09:07:11;;;;;;;11.52;5.68;;;;;;;;;;5034752;28;20056;-62
2020/12/28 09:09:41;;;;;;;12.43;5.65;;;;;;;;;;5033468;28;20029;-62
2020/12/28 09:12:07;;;;;;;9.35;3.70;;;;;;;;;;5034220;28;20034;-62
2020/12/28 09:14:34;;;;;;;4.50;3.10;;;;;;;;;;5016622;28;20025;-61
2020/12/28 09:17:00;;;;;;;4.07;2.33;;;;;;;;;;5033863;28;20052;-62
2020/12/28 09:19:26;;;;;;;6.50;3.20;;;;;;;;;;5034030;28;20412;-62
2020/12/28 09:21:52;;;;;;;6.05;2.15;;;;;;;;;;5033961;28;20467;-64
2020/12/28 09:24:18;;;;;;;5.32;1.67;;;;;;;;;;5015696;28;20038;-63
2020/12/28 09:26:45;;;;;;;4.50;1.90;;;;;;;;;;5033776;28;20017;-65
2020/12/28 09:29:11;;;;;;;5.07;2.97;;;;;;;;;;5033886;28;20029;-64
2020/12/28 09:31:37;;;;;;;4.82;2.30;;;;;;;;;;5034186;28;20026;-64
2020/12/28 09:34:03;;;;;;;3.88;1.10;;;;;;;;;;5034005;28;20033;-63
2020/12/28 09:36:29;;;;;;;3.58;1.80;;;;;;;;;;5033790;28;20022;-65
2020/12/28 09:38:55;;;;;;;4.35;1.60;;;;;;;;;;5034054;28;20025;-66
2020/12/28 09:41:21;;;;;;;3.60;1.90;;;;;;;;;;5033919;28;20104;-65
2020/12/28 09:43:47;;;;;;;5.32;1.95;;;;;;;;;;5032478;28;20034;-62
2020/12/28 09:46:18;;;;;;;5.90;3.03;;;;;;;;;;5033693;28;20064;-65
2020/12/28 09:48:44;;;;;;;7.80;3.38;;;;;;;;;;5033373;28;20032;-64
2020/12/28 09:51:10;;;;;;;6.03;2.47;;;;;;;;;;5033613;28;20022;-63
2020/12/28 09:53:38;;;;;;;7.22;2.53;;;;;;;;;;5033167;28;20025;-66
2020/12/28 09:56:04;;;;;;;4.88;1.98;;;;;;;;;;5033021;28;20036;-66
2020/12/28 09:58:32;;;;;;;2.90;1.77;;;;;;;;;;5033509;28;20033;-65
2020/12/28 10:00:58;;;;;;;6.10;2.30;;;;;;;;;;5033730;28;20042;-66
2020/12/28 10:03:25;;;;;;;8.15;4.18;;;;;;;;;;5033363;28;20487;-63
2020/12/28 10:05:51;;;;;;;5.32;2.30;;;;;;;;;;5033287;28;20072;-65
2020/12/28 10:08:17;;;;;;;10.20;3.28;;;;;;;;;;5033204;28;20033;-65
2020/12/28 10:10:44;;;;;;;8.10;2.53;;;;;;;;;;5032766;28;20029;-63
2020/12/28 10:13:11;;;;;;;6.70;2.70;;;;;;;;;;5033000;28;20030;-65
2020/12/28 10:15:37;;;;;;;8.93;3.80;;;;;;;;;;5032955;28;20080;-64
2020/12/28 10:18:10;;;;;;;9.27;4.10;;;;;;;;;;5033037;28;20382;-64
2020/12/28 10:20:36;;;;;;;12.45;5.13;;;;;;;;;;5033149;28;20037;-65
2020/12/28 10:23:02;;;;;;;14.57;6.47;;;;;;;;;;5033115;28;20122;-64
2020/12/28 10:25:29;;;;;;;5.65;3.03;;;;;;;;;;5033342;28;20052;-65
2020/12/28 10:27:55;;;;;;;7.32;3.80;;;;;;;;;;5032899;28;20084;-64
2020/12/28 10:30:21;;;;;;;9.50;5.53;;;;;;;;;;5033036;28;20044;-64
2020/12/28 10:32:47;;;;;;;11.15;5.68;;;;;;;;;;5033099;28;20114;-63
2020/12/28 10:35:14;;;;;;;6.80;2.20;;;;;;;;;;5033213;28;20033;-63
2020/12/28 10:37:40;;;;;;;5.15;2.15;;;;;;;;;;5033198;28;20053;-63
2020/12/28 10:40:06;;;;;;;7.15;2.83;;;;;;;;;;5033204;28;20394;-63
2020/12/28 10:42:33;;;;;;;7.53;2.30;;;;;;;;;;5032696;28;20022;-64
2020/12/28 10:44:59;;;;;;;5.43;2.00;;;;;;;;;;5032954;28;20075;-63
2020/12/28 10:47:25;;;;;;;4.22;1.92;;;;;;;;;;5033230;28;20025;-64
2020/12/28 10:49:51;;;;;;;5.25;2.30;;;;;;;;;;5033052;28;20029;-64
2020/12/28 10:52:17;;;;;;;5.47;2.25;;;;;;;;;;5033092;28;20025;-64
2020/12/28 10:54:44;;;;;;;9.55;3.60;;;;;;;;;;5032306;28;20029;-63
2020/12/28 10:57:10;;;;;;;7.72;3.22;;;;;;;;;;5032941;28;20425;-63
2020/12/28 10:59:36;;;;;;;5.40;2.83;;;;;;;;;;5032754;28;20046;-63
2020/12/28 11:02:02;;;;;;;7.35;2.90;;;;;;;;;;5032854;28;20025;-63
2020/12/28 11:04:28;;;;;;;13.27;3.65;;;;;;;;;;5032670;28;20044;-64
2020/12/28 11:06:54;;;;;;;7.32;2.92;;;;;;;;;;5035690;28;20018;-64
2020/12/28 11:09:20;;;;;;;8.60;2.90;;;;;;;;;;5036677;28;20033;-64
2020/12/28 11:11:50;;;;;;;8.38;2.05;;;;;;;;;;5036898;28;20057;-63
2020/12/28 11:14:16;;;;;;;7.95;2.80;;;;;;;;;;5036324;28;20764;-64
2020/12/28 11:16:42;;;;;;;6.82;2.22;;;;;;;;;;5036856;28;20389;-64
2020/12/28 11:19:08;;;;;;;10.07;4.00;;;;;;;;;;5036257;28;20037;-64
2020/12/28 11:21:34;;;;;;;20.02;12.20;;;;;;;;;;5036483;28;20470;-64
2020/12/28 11:24:01;;;;;;;21.58;10.77;;;;;;;;;;5036528;28;20156;-64
2020/12/28 11:26:28;;;;;;;13.52;5.55;;;;;;;;;;5036303;28;20101;-64
2020/12/28 11:28:55;;;;;;;6.72;2.42;;;;;;;;;;5036449;28;20113;-63
2020/12/28 11:31:21;;;;;;;10.80;2.83;;;;;;;;;;5018426;28;20352;-64
2020/12/28 11:33:47;;;;;;;7.20;2.45;;;;;;;;;;5036170;28;20055;-64
2020/12/28 11:36:14;;;;;;;7.18;2.20;;;;;;;;;;5018311;28;20029;-63
2020/12/28 11:38:41;;;;;;;11.90;2.42;;;;;;;;;;5036291;28;20379;-64
2020/12/28 11:41:07;;;;;;;8.02;2.08;;;;;;;;;;5035941;28;20025;-62
2020/12/28 11:43:33;;;;;;;9.85;2.20;;;;;;;;;;5017049;28;20064;-63
2020/12/28 11:46:00;;;;;;;8.95;2.17;;;;;;;;;;5034885;28;20069;-64
2020/12/28 11:48:26;;;;;;;10.15;2.38;;;;;;;;;;5035789;28;20567;-63
2020/12/28 11:50:52;;;;;;;11.02;2.67;;;;;;;;;;5035725;28;20471;-63
2020/12/28 11:53:18;;;;;;;6.05;1.80;;;;;;;;;;5035758;28;20021;-63
2020/12/28 11:58:33;;;;;;;5.85;1.33;;;;;;;;;;5035671;28;20057;-64
2020/12/28 12:00:59;;;;;;;8.48;1.42;;;;;;;;;;5035513;28;20033;-62
2020/12/28 12:03:28;;;;;;;10.27;1.73;;;;;;;;;;5035881;28;20034;-63
2020/12/28 12:05:54;;;;;;;6.45;1.02;;;;;;;;;;5035305;28;20533;-62
2020/12/28 12:08:20;;;;;;;6.47;1.48;;;;;;;;;;5035482;28;20068;-64
2020/12/28 12:10:47;;;;;;;12.45;1.92;;;;;;;;;;5035629;28;20469;-63
2020/12/28 12:13:13;;;;;;;7.75;1.50;;;;;;;;;;5035000;28;20029;-62
2020/12/28 12:15:43;;;;;;;7.93;1.48;;;;;;;;;;5035352;28;20026;-62
2020/12/28 12:18:09;;;;;;;7.60;2.13;;;;;;;;;;5034309;28;20051;-63
2020/12/28 12:20:35;;;;;;;6.22;1.42;;;;;;;;;;5034500;28;20429;-62
2020/12/28 12:23:01;;;;;;;7.70;1.35;;;;;;;;;;5033743;28;20403;-62
2020/12/28 12:25:28;;;;;;;5.65;1.40;;;;;;;;;;5032656;28;20167;-62
2020/12/28 12:27:54;;;;;;;6.72;1.15;;;;;;;;;;5033376;28;20034;-62
2020/12/28 12:30:20;;;;;;;4.70;1.00;;;;;;;;;;5032923;28;20025;-63
2020/12/28 12:32:46;;;;;;;10.60;3.00;;;;;;;;;;5033565;28;20110;-62
2020/12/28 12:35:13;;;;;;;3.50;0.95;;;;;;;;;;5030811;28;20021;-62
2020/12/28 12:37:39;;;;;;;4.38;1.20;;;;;;;;;;5033521;28;20112;-62
2020/12/28 12:40:05;;;;;;;5.05;1.02;;;;;;;;;;5033425;28;20025;-63
2020/12/28 12:42:31;;;;;;;5.35;0.93;;;;;;;;;;5033075;28;20097;-63
2020/12/28 12:44:57;;;;;;;7.22;1.20;;;;;;;;;;5034632;28;20120;-63
2020/12/28 12:47:23;;;;;;;8.57;1.60;;;;;;;;;;5034807;28;20108;-64
2020/12/28 12:49:50;;;;;;;6.00;2.22;;;;;;;;;;5034871;28;20025;-63
2020/12/28 12:52:23;;;;;;;7.05;2.42;;;;;;;;;;5034654;28;20037;-64
2020/12/28 12:54:49;;;;;;;9.07;1.92;;;;;;;;;;5034695;28;20569;-64
2020/12/28 12:57:15;;;;;;;6.75;1.20;;;;;;;;;;5034509;28;20046;-63
2020/12/28 13:02:27;;;;;;;8.88;2.80;;;;;;;;;;5034814;28;20127;-64
2020/12/28 13:04:53;;;;;;;9.02;2.13;;;;;;;;;;5034569;28;20089;-62
2020/12/28 13:07:19;;;;;;;6.45;2.50;;;;;;;;;;5034400;28;20021;-63
2020/12/28 13:09:45;;;;;;;10.18;3.13;;;;;;;;;;5034659;28;20033;-61
2020/12/28 13:12:11;;;;;;;7.05;2.38;;;;;;;;;;5034387;28;20029;-63
2020/12/28 13:14:37;;;;;;;8.65;2.50;;;;;;;;;;5034466;28;20056;-62
2020/12/28 13:17:04;;;;;;;9.20;2.55;;;;;;;;;;5034273;28;20462;-63
2020/12/28 13:19:30;;;;;;;7.78;2.92;;;;;;;;;;5034171;28;20113;-64
2020/12/28 13:21:56;;;;;;;13.35;6.22;;;;;;;;;;5034306;28;20045;-64
2020/12/28 13:24:22;;;;;;;5.50;1.65;;;;;;;;;;5034102;28;20116;-63
2020/12/28 13:26:48;;;;;;;7.72;2.13;;;;;;;;;;5033997;28;20458;-62
2020/12/28 13:29:15;;;;;;;5.72;1.67;;;;;;;;;;5033014;28;20497;-63
2020/12/28 13:31:41;;;;;;;8.88;2.50;;;;;;;;;;5034158;28;20029;-61
2020/12/28 13:34:07;;;;;;;8.82;1.80;;;;;;;;;;5034227;28;20029;-63
2020/12/28 13:36:37;;;;;;;8.32;2.90;;;;;;;;;;5033861;28;20029;-62
2020/12/28 13:39:04;;;;;;;6.97;2.00;;;;;;;;;;5034144;28;20048;-63
2020/12/28 13:41:30;;;;;;;9.48;2.72;;;;;;;;;;5032979;28;20088;-63
2020/12/28 13:43:56;;;;;;;7.28;2.78;;;;;;;;;;5033026;28;20047;-62
2020/12/28 13:46:22;;;;;;;11.75;2.60;;;;;;;;;;5033535;28;20060;-62
2020/12/28 13:48:49;;;;;;;11.85;2.25;;;;;;;;;;5033154;28;20029;-63
2020/12/28 13:51:21;;;;;;;8.13;1.40;;;;;;;;;;5033565;28;20029;-64
2020/12/28 13:53:48;;;;;;;12.93;3.38;;;;;;;;;;5033595;28;20107;-64
2020/12/28 13:56:15;;;;;;;10.85;2.47;;;;;;;;;;5033419;28;20025;-63
2020/12/28 13:58:42;;;;;;;17.80;2.15;;;;;;;;;;5033571;28;20050;-64
2020/12/28 14:01:11;;;;;;;15.50;3.13;;;;;;;;;;5033479;28;20545;-63
2020/12/28 14:03:42;;;;;;;17.02;2.53;;;;;;;;;;5033758;28;20041;-59
2020/12/28 14:06:11;;;;;;;12.95;1.85;;;;;;;;;;5033447;28;20025;-59
2020/12/28 14:08:41;;;;;;;15.60;2.30;;;;;;;;;;5033510;28;20053;-59
2020/12/28 14:11:07;;;;;;;13.68;2.35;;;;;;;;;;5033392;28;20105;-59
2020/12/28 14:13:33;;;;;;;23.75;2.63;;;;;;;;;;5033597;28;20049;-60
2020/12/28 14:15:59;;;;;;;18.02;3.35;;;;;;;;;;5033293;28;20025;-59
2020/12/28 14:18:27;;;;;;;25.55;3.33;;;;;;;;;;5033297;28;20037;-59
2020/12/28 14:20:54;;;;;;;18.85;3.05;;;;;;;;;;5033224;28;20028;-59
2020/12/28 14:23:20;;;;;;;18.92;3.50;;;;;;;;;;5033211;28;20033;-60
2020/12/28 14:25:46;;;;;;;20.33;3.20;;;;;;;;;;5033398;28;20075;-59
2020/12/28 14:28:12;;;;;;;29.27;2.58;;;;;;;;;;5033055;28;20032;-59
2020/12/28 14:30:38;;;;;;;22.10;2.65;;;;;;;;;;5033055;28;20021;-58
2020/12/28 14:33:05;;;;;;;30.00;5.07;;;;;;;;;;5033398;28;20453;-59
2020/12/28 14:35:32;;;;;;;30.00;3.22;;;;;;;;;;5033035;28;20021;-59